sensor_id;sensor_type;location;lat;lon;timestamp;pressure;altitude;pressure_sealevel;temperature;humidity
73910;BME280;62245;48.070;7.874;2022-09-09T03:02:55;98742.31;;;18.66;64.33
73910;BME280;62245;48.070;7.874;2022-09-09T03:05:21;98743.91;;;18.62;64.58
73910;BME280;62245;48.070;7.874;2022-09-09T03:07:47;98747.16;;;18.69;64.94
73910;BME280;62245;48.070;7.874;2022-09-09T03:10:12;98740.13;;;18.68;65.23
73910;BME280;62245;48.070;7.874;2022-09-09T03:12:38;98743.91;;;18.72;64.99
73910;BME280;62245;48.070;7.874;2022-09-09T03:15:05;98743.66;;;18.74;64.94
73910;BME280;62245;48.070;7.874;2022-09-09T03:17:31;98733.63;;;18.69;65.15
73910;BME280;62245;48.070;7.874;2022-09-09T03:19:56;98746.63;;;18.72;65.07
73910;BME280;62245;48.070;7.874;2022-09-09T03:22:22;98744.44;;;18.69;65.37
73910;BME280;62245;48.070;7.874;2022-09-09T03:24:48;98722.03;;;18.69;65.51
73910;BME280;62245;48.070;7.874;2022-09-09T03:27:13;98737.41;;;18.68;65.90
73910;BME280;62245;48.070;7.874;2022-09-09T03:29:39;98737.97;;;18.70;65.74
73910;BME280;62245;48.070;7.874;2022-09-09T03:32:05;98739.03;;;18.69;66.03
73910;BME280;62245;48.070;7.874;2022-09-09T03:34:30;98740.66;;;18.70;65.74
73910;BME280;62245;48.070;7.874;2022-09-09T03:36:56;98746.88;;;18.71;65.13
73910;BME280;62245;48.070;7.874;2022-09-09T03:39:21;98733.63;;;18.69;65.07
73910;BME280;62245;48.070;7.874;2022-09-09T03:41:47;98730.69;;;18.71;65.81
73910;BME280;62245;48.070;7.874;2022-09-09T03:44:13;98725.81;;;18.68;65.57
73910;BME280;62245;48.070;7.874;2022-09-09T03:46:39;98723.94;;;18.73;65.42
73910;BME280;62245;48.070;7.874;2022-09-09T03:49:04;98725.28;;;18.66;65.94
73910;BME280;62245;48.070;7.874;2022-09-09T03:51:29;98724.44;;;18.50;66.26
73910;BME280;62245;48.070;7.874;2022-09-09T03:53:55;98724.41;;;18.55;65.46
73910;BME280;62245;48.070;7.874;2022-09-09T03:56:23;98729.59;;;18.62;65.73
73910;BME280;62245;48.070;7.874;2022-09-09T03:58:48;98721.22;;;18.63;65.29
73910;BME280;62245;48.070;7.874;2022-09-09T04:01:14;98727.66;;;18.52;66.02
73910;BME280;62245;48.070;7.874;2022-09-09T04:03:40;98726.56;;;18.43;66.56
73910;BME280;62245;48.070;7.874;2022-09-09T04:06:06;98733.03;;;18.37;67.27
73910;BME280;62245;48.070;7.874;2022-09-09T04:08:33;98721.94;;;18.28;67.84
73910;BME280;62245;48.070;7.874;2022-09-09T04:10:58;98736.78;;;18.26;68.28
73910;BME280;62245;48.070;7.874;2022-09-09T04:13:25;98732.75;;;18.28;68.54
73910;BME280;62245;48.070;7.874;2022-09-09T04:15:53;98726.81;;;18.31;68.02
73910;BME280;62245;48.070;7.874;2022-09-09T04:18:19;98723.28;;;18.21;68.00
73910;BME280;62245;48.070;7.874;2022-09-09T04:20:51;98726.28;;;18.29;67.99
73910;BME280;62245;48.070;7.874;2022-09-09T04:23:18;98733.28;;;18.30;68.11
73910;BME280;62245;48.070;7.874;2022-09-09T04:25:49;98738.97;;;18.29;68.08
73910;BME280;62245;48.070;7.874;2022-09-09T04:28:15;98729.22;;;18.23;68.28
73910;BME280;62245;48.070;7.874;2022-09-09T04:30:41;98720.56;;;18.21;68.38
73910;BME280;62245;48.070;7.874;2022-09-09T04:33:08;98723.00;;;18.17;68.66
73910;BME280;62245;48.070;7.874;2022-09-09T04:35:35;98723.53;;;18.19;68.43
73910;BME280;62245;48.070;7.874;2022-09-09T04:38:00;98725.69;;;18.12;68.88
73910;BME280;62245;48.070;7.874;2022-09-09T04:40:28;98719.94;;;17.93;69.07
73910;BME280;62245;48.070;7.874;2022-09-09T04:42:54;98718.88;;;17.89;69.12
73910;BME280;62245;48.070;7.874;2022-09-09T04:45:20;98717.53;;;17.97;68.90
73910;BME280;62245;48.070;7.874;2022-09-09T04:47:45;98718.88;;;17.89;69.16
73910;BME280;62245;48.070;7.874;2022-09-09T04:50:10;98721.03;;;17.92;68.75
73910;BME280;62245;48.070;7.874;2022-09-09T04:52:37;98713.47;;;17.89;68.97
73910;BME280;62245;48.070;7.874;2022-09-09T04:55:03;98724.78;;;17.86;69.18
73910;BME280;62245;48.070;7.874;2022-09-09T04:57:28;98729.13;;;17.92;68.95
73910;BME280;62245;48.070;7.874;2022-09-09T04:59:54;98728.56;;;17.90;69.00
73910;BME280;62245;48.070;7.874;2022-09-09T05:02:19;98728.88;;;17.99;68.29
73910;BME280;62245;48.070;7.874;2022-09-09T05:04:45;98731.31;;;18.00;68.29
73910;BME280;62245;48.070;7.874;2022-09-09T05:07:10;98729.72;;;18.09;68.24
73910;BME280;62245;48.070;7.874;2022-09-09T05:09:35;98738.38;;;18.12;68.62
73910;BME280;62245;48.070;7.874;2022-09-09T05:12:01;98749.16;;;18.12;68.38
73910;BME280;62245;48.070;7.874;2022-09-09T05:14:28;98733.00;;;18.22;67.97
73910;BME280;62245;48.070;7.874;2022-09-09T05:16:54;98741.88;;;18.17;68.29
73910;BME280;62245;48.070;7.874;2022-09-09T05:19:20;98738.88;;;18.08;68.37
73910;BME280;62245;48.070;7.874;2022-09-09T05:21:46;98744.28;;;18.08;68.78
73910;BME280;62245;48.070;7.874;2022-09-09T05:24:11;98740.56;;;18.15;68.58
73910;BME280;62245;48.070;7.874;2022-09-09T05:26:36;98745.69;;;18.16;68.16
73910;BME280;62245;48.070;7.874;2022-09-09T05:29:02;98744.31;;;18.19;68.31
73910;BME280;62245;48.070;7.874;2022-09-09T05:31:29;98752.69;;;18.17;68.52
73910;BME280;62245;48.070;7.874;2022-09-09T05:33:55;98740.28;;;18.21;68.30
73910;BME280;62245;48.070;7.874;2022-09-09T05:36:21;98745.44;;;18.23;68.36
73910;BME280;62245;48.070;7.874;2022-09-09T05:38:47;98747.56;;;18.16;68.53
73910;BME280;62245;48.070;7.874;2022-09-09T05:41:13;98750.53;;;18.19;68.33
73910;BME280;62245;48.070;7.874;2022-09-09T05:43:41;98756.22;;;18.23;68.00
73910;BME280;62245;48.070;7.874;2022-09-09T05:46:11;98765.41;;;18.22;68.14
73910;BME280;62245;48.070;7.874;2022-09-09T05:48:39;98749.22;;;18.22;67.97
73910;BME280;62245;48.070;7.874;2022-09-09T05:51:07;98751.34;;;18.15;68.24
73910;BME280;62245;48.070;7.874;2022-09-09T05:53:33;98757.56;;;18.20;67.67
73910;BME280;62245;48.070;7.874;2022-09-09T05:56:05;98760.31;;;18.30;67.87
73910;BME280;62245;48.070;7.874;2022-09-09T05:58:32;98748.13;;;18.23;68.27
73910;BME280;62245;48.070;7.874;2022-09-09T06:01:18;98755.69;;;18.26;67.69
73910;BME280;62245;48.070;7.874;2022-09-09T06:03:45;98760.00;;;18.22;68.36
73910;BME280;62245;48.070;7.874;2022-09-09T06:06:13;98754.88;;;18.20;68.41
73910;BME280;62245;48.070;7.874;2022-09-09T06:08:41;98766.47;;;18.21;68.50
73910;BME280;62245;48.070;7.874;2022-09-09T06:11:10;98763.56;;;18.32;68.01
73910;BME280;62245;48.070;7.874;2022-09-09T06:13:37;98765.97;;;18.34;67.89
73910;BME280;62245;48.070;7.874;2022-09-09T06:16:04;98758.97;;;18.33;67.94
73910;BME280;62245;48.070;7.874;2022-09-09T06:18:30;98746.78;;;18.30;67.97
73910;BME280;62245;48.070;7.874;2022-09-09T06:21:04;98754.63;;;18.32;68.18
73910;BME280;62245;48.070;7.874;2022-09-09T06:23:30;98754.63;;;18.32;68.56
73910;BME280;62245;48.070;7.874;2022-09-09T06:26:04;98762.75;;;18.37;68.32
73910;BME280;62245;48.070;7.874;2022-09-09T06:28:31;98743.84;;;18.32;68.12
73910;BME280;62245;48.070;7.874;2022-09-09T06:31:00;98761.41;;;18.44;67.89
73910;BME280;62245;48.070;7.874;2022-09-09T06:33:26;98755.44;;;18.42;68.16
73910;BME280;62245;48.070;7.874;2022-09-09T06:35:55;98756.03;;;18.50;68.05
73910;BME280;62245;48.070;7.874;2022-09-09T06:38:22;98761.75;;;18.58;67.85
73910;BME280;62245;48.070;7.874;2022-09-09T06:40:52;98747.91;;;18.44;67.88
73910;BME280;62245;48.070;7.874;2022-09-09T06:43:19;98767.97;;;18.64;67.91
73910;BME280;62245;48.070;7.874;2022-09-09T06:45:54;98769.31;;;18.61;67.68
73910;BME280;62245;48.070;7.874;2022-09-09T06:48:23;98772.03;;;18.66;67.05
73910;BME280;62245;48.070;7.874;2022-09-09T06:50:48;98781.75;;;18.57;67.09
73910;BME280;62245;48.070;7.874;2022-09-09T06:53:17;98780.06;;;18.56;67.10
73910;BME280;62245;48.070;7.874;2022-09-09T06:55:44;98769.25;;;18.51;67.17
73910;BME280;62245;48.070;7.874;2022-09-09T06:58:10;98787.91;;;18.53;67.71
73910;BME280;62245;48.070;7.874;2022-09-09T07:00:35;98781.69;;;18.42;67.64
73910;BME280;62245;48.070;7.874;2022-09-09T07:03:03;98778.97;;;18.47;67.54
73910;BME280;62245;48.070;7.874;2022-09-09T07:05:29;98786.56;;;18.50;67.68
73910;BME280;62245;48.070;7.874;2022-09-09T07:07:54;98793.09;;;18.64;67.74
73910;BME280;62245;48.070;7.874;2022-09-09T07:10:20;98799.88;;;18.67;67.68
73910;BME280;62245;48.070;7.874;2022-09-09T07:12:50;98792.03;;;18.65;67.58
73910;BME280;62245;48.070;7.874;2022-09-09T07:15:16;98801.78;;;18.76;66.86
73910;BME280;62245;48.070;7.874;2022-09-09T07:17:44;98792.81;;;18.71;67.19
73910;BME280;62245;48.070;7.874;2022-09-09T07:20:10;98807.19;;;18.76;67.34
73910;BME280;62245;48.070;7.874;2022-09-09T07:22:35;98795.03;;;18.84;66.38
73910;BME280;62245;48.070;7.874;2022-09-09T07:25:00;98799.34;;;18.85;66.48
73910;BME280;62245;48.070;7.874;2022-09-09T07:27:27;98800.41;;;18.94;67.37
73910;BME280;62245;48.070;7.874;2022-09-09T07:29:52;98816.41;;;19.01;65.86
73910;BME280;62245;48.070;7.874;2022-09-09T07:32:19;98806.91;;;19.03;65.93
73910;BME280;62245;48.070;7.874;2022-09-09T07:34:45;98797.75;;;19.09;65.19
73910;BME280;62245;48.070;7.874;2022-09-09T07:37:10;98807.19;;;19.07;65.44
73910;BME280;62245;48.070;7.874;2022-09-09T07:39:38;98798.00;;;19.08;64.01
73910;BME280;62245;48.070;7.874;2022-09-09T07:42:04;98806.13;;;19.08;64.68
73910;BME280;62245;48.070;7.874;2022-09-09T07:44:30;98808.81;;;19.13;64.83
73910;BME280;62245;48.070;7.874;2022-09-09T07:46:57;98814.75;;;19.20;64.83
73910;BME280;62245;48.070;7.874;2022-09-09T07:49:22;98812.63;;;19.27;65.00
73910;BME280;62245;48.070;7.874;2022-09-09T07:51:48;98824.25;;;19.28;64.58
73910;BME280;62245;48.070;7.874;2022-09-09T07:54:16;98826.94;;;19.07;65.23
73910;BME280;62245;48.070;7.874;2022-09-09T07:56:45;98815.31;;;19.17;64.65
73910;BME280;62245;48.070;7.874;2022-09-09T07:59:12;98823.97;;;19.19;65.61
73910;BME280;62245;48.070;7.874;2022-09-09T08:01:40;98833.41;;;19.06;65.46
73910;BME280;62245;48.070;7.874;2022-09-09T08:04:09;98833.69;;;19.00;65.82
73910;BME280;62245;48.070;7.874;2022-09-09T08:06:38;98831.53;;;19.02;65.78
73910;BME280;62245;48.070;7.874;2022-09-09T08:09:04;98835.84;;;18.98;65.86
73910;BME280;62245;48.070;7.874;2022-09-09T08:11:31;98815.59;;;19.00;65.80
73910;BME280;62245;48.070;7.874;2022-09-09T08:13:58;98821.25;;;19.14;65.20
73910;BME280;62245;48.070;7.874;2022-09-09T08:16:29;98825.59;;;19.25;64.82
73910;BME280;62245;48.070;7.874;2022-09-09T08:18:56;98821.78;;;19.31;65.50
73910;BME280;62245;48.070;7.874;2022-09-09T08:21:24;98825.31;;;19.57;64.27
73910;BME280;62245;48.070;7.874;2022-09-09T08:23:52;98821.78;;;19.41;64.49
73910;BME280;62245;48.070;7.874;2022-09-09T08:26:19;98828.84;;;19.63;64.37
73910;BME280;62245;48.070;7.874;2022-09-09T08:28:46;98814.75;;;19.66;63.79
73910;BME280;62245;48.070;7.874;2022-09-09T08:31:13;98821.47;;;19.83;62.11
73910;BME280;62245;48.070;7.874;2022-09-09T08:33:39;98815.81;;;19.80;62.55
73910;BME280;62245;48.070;7.874;2022-09-09T08:36:05;98811.19;;;19.85;62.42
73910;BME280;62245;48.070;7.874;2022-09-09T08:38:31;98829.31;;;19.95;62.35
73910;BME280;62245;48.070;7.874;2022-09-09T08:46:39;98826.28;;;20.07;61.52
73910;BME280;62245;48.070;7.874;2022-09-09T08:49:36;98843.09;;;19.98;61.83
73910;BME280;62245;48.070;7.874;2022-09-09T08:52:13;98828.19;;;20.01;61.26
73910;BME280;62245;48.070;7.874;2022-09-09T08:54:41;98824.03;;;20.24;61.14
73910;BME280;62245;48.070;7.874;2022-09-09T08:57:13;98828.06;;;20.47;59.48
73910;BME280;62245;48.070;7.874;2022-09-09T08:59:39;98839.22;;;20.30;60.65
73910;BME280;62245;48.070;7.874;2022-09-09T09:02:19;98848.97;;;20.36;60.25
73910;BME280;62245;48.070;7.874;2022-09-09T09:04:56;98842.72;;;20.41;61.17
73910;BME280;62245;48.070;7.874;2022-09-09T09:10:45;98833.28;;;21.21;57.02
73910;BME280;62245;48.070;7.874;2022-09-09T09:15:50;98838.19;;;21.19;58.33
73910;BME280;62245;48.070;7.874;2022-09-09T09:18:18;98829.06;;;20.61;55.65
73910;BME280;62245;48.070;7.874;2022-09-09T09:21:19;98848.38;;;20.49;57.51
73910;BME280;62245;48.070;7.874;2022-09-09T09:23:53;98827.78;;;20.33;56.41
73910;BME280;62245;48.070;7.874;2022-09-09T09:26:23;98819.88;;;20.52;56.79
73910;BME280;62245;48.070;7.874;2022-09-09T09:28:50;98823.19;;;20.44;56.96
73910;BME280;62245;48.070;7.874;2022-09-09T09:31:18;98822.38;;;20.33;56.21
73910;BME280;62245;48.070;7.874;2022-09-09T09:33:49;98831.94;;;20.20;56.15
73910;BME280;62245;48.070;7.874;2022-09-09T09:36:16;98850.88;;;20.20;56.11
73910;BME280;62245;48.070;7.874;2022-09-09T09:39:02;98821.63;;;20.22;55.52
73910;BME280;62245;48.070;7.874;2022-09-09T09:41:48;98825.06;;;20.48;55.52
73910;BME280;62245;48.070;7.874;2022-09-09T09:44:31;98835.03;;;20.58;55.64
73910;BME280;62245;48.070;7.874;2022-09-09T09:49:31;98835.50;;;20.75;52.68
73910;BME280;62245;48.070;7.874;2022-09-09T09:52:02;98819.78;;;20.72;52.58
73910;BME280;62245;48.070;7.874;2022-09-09T09:54:38;98822.81;;;21.04;51.86
73910;BME280;62245;48.070;7.874;2022-09-09T09:57:12;98813.31;;;21.70;49.85
73910;BME280;62245;48.070;7.874;2022-09-09T09:59:38;98805.91;;;21.75;50.53
73910;BME280;62245;48.070;7.874;2022-09-09T10:02:20;98804.56;;;21.73;50.07
73910;BME280;62245;48.070;7.874;2022-09-09T10:04:46;98800.72;;;21.79;50.12
73910;BME280;62245;48.070;7.874;2022-09-09T10:07:13;98805.53;;;21.87;49.40
73910;BME280;62245;48.070;7.874;2022-09-09T10:09:41;98815.50;;;21.92;48.41
73910;BME280;62245;48.070;7.874;2022-09-09T10:15:15;98793.53;;;21.88;48.58
73910;BME280;62245;48.070;7.874;2022-09-09T10:17:51;98803.84;;;21.67;48.95
73910;BME280;62245;48.070;7.874;2022-09-09T10:22:50;98780.88;;;21.55;49.86
73910;BME280;62245;48.070;7.874;2022-09-09T10:36:23;98791.78;;;20.82;53.02
73910;BME280;62245;48.070;7.874;2022-09-09T10:38:57;98789.50;;;20.99;51.22
73910;BME280;62245;48.070;7.874;2022-09-09T10:41:42;98799.25;;;21.00;51.98
73910;BME280;62245;48.070;7.874;2022-09-09T10:44:17;98810.25;;;21.19;51.78
73910;BME280;62245;48.070;7.874;2022-09-09T10:55:11;98820.09;;;20.60;53.50
73910;BME280;62245;48.070;7.874;2022-09-09T10:57:42;98806.16;;;20.82;54.21
73910;BME280;62245;48.070;7.874;2022-09-09T11:03:02;98811.97;;;21.04;52.82
73910;BME280;62245;48.070;7.874;2022-09-09T11:05:42;98825.97;;;21.22;52.03
73910;BME280;62245;48.070;7.874;2022-09-09T11:08:13;98817.78;;;21.27;50.82
73910;BME280;62245;48.070;7.874;2022-09-09T11:11:02;98844.25;;;21.40;49.20
73910;BME280;62245;48.070;7.874;2022-09-09T11:16:30;98835.84;;;21.02;51.08
73910;BME280;62245;48.070;7.874;2022-09-09T11:19:26;98829.91;;;21.00;50.20
73910;BME280;62245;48.070;7.874;2022-09-09T11:21:53;98824.13;;;20.68;50.65
73910;BME280;62245;48.070;7.874;2022-09-09T11:24:24;98844.81;;;20.54;49.55
73910;BME280;62245;48.070;7.874;2022-09-09T11:29:39;98840.00;;;20.41;52.10
73910;BME280;62245;48.070;7.874;2022-09-09T11:35:31;98831.88;;;20.30;51.96
73910;BME280;62245;48.070;7.874;2022-09-09T11:40:34;98846.38;;;20.65;52.30
73910;BME280;62245;48.070;7.874;2022-09-09T11:43:12;98841.03;;;20.94;51.50
73910;BME280;62245;48.070;7.874;2022-09-09T11:45:40;98834.56;;;21.29;51.11
73910;BME280;62245;48.070;7.874;2022-09-09T11:51:07;98842.06;;;21.71;50.18
73910;BME280;62245;48.070;7.874;2022-09-09T11:53:35;98822.03;;;21.38;50.39
73910;BME280;62245;48.070;7.874;2022-09-09T11:56:03;98836.19;;;21.30;50.78
73910;BME280;62245;48.070;7.874;2022-09-09T11:58:35;98818.13;;;21.49;50.98
73910;BME280;62245;48.070;7.874;2022-09-09T12:01:13;98819.94;;;21.59;50.18
73910;BME280;62245;48.070;7.874;2022-09-09T12:03:46;98827.63;;;21.46;51.30
73910;BME280;62245;48.070;7.874;2022-09-09T12:06:41;98824.41;;;21.73;51.01
73910;BME280;62245;48.070;7.874;2022-09-09T12:09:17;98835.16;;;21.83;50.21
73910;BME280;62245;48.070;7.874;2022-09-09T12:11:43;98826.13;;;21.64;49.32
73910;BME280;62245;48.070;7.874;2022-09-09T12:14:35;98825.53;;;21.96;48.10
73910;BME280;62245;48.070;7.874;2022-09-09T12:19:35;98807.56;;;22.24;46.49
73910;BME280;62245;48.070;7.874;2022-09-09T12:22:12;98819.84;;;22.22;45.61
73910;BME280;62245;48.070;7.874;2022-09-09T12:24:49;98826.94;;;22.17;46.01
73910;BME280;62245;48.070;7.874;2022-09-09T12:27:23;98824.53;;;22.35;45.38
73910;BME280;62245;48.070;7.874;2022-09-09T12:30:03;98806.72;;;22.47;45.28
73910;BME280;62245;48.070;7.874;2022-09-09T12:32:29;98807.16;;;22.54;44.85
73910;BME280;62245;48.070;7.874;2022-09-09T12:35:02;98808.84;;;22.50;44.70
73910;BME280;62245;48.070;7.874;2022-09-09T12:40:05;98828.78;;;22.22;46.00
73910;BME280;62245;48.070;7.874;2022-09-09T12:42:31;98814.50;;;21.88;46.19
73910;BME280;62245;48.070;7.874;2022-09-09T12:45:03;98819.38;;;21.62;46.71
73910;BME280;62245;48.070;7.874;2022-09-09T12:47:39;98803.28;;;21.70;47.48
73910;BME280;62245;48.070;7.874;2022-09-09T12:50:17;98813.13;;;21.61;48.14
73910;BME280;62245;48.070;7.874;2022-09-09T12:52:44;98807.94;;;21.36;47.80
73910;BME280;62245;48.070;7.874;2022-09-09T12:55:21;98816.13;;;21.31;48.64
73910;BME280;62245;48.070;7.874;2022-09-09T12:57:50;98798.22;;;21.30;48.95
73910;BME280;62245;48.070;7.874;2022-09-09T13:00:21;98806.69;;;21.23;47.74
73910;BME280;62245;48.070;7.874;2022-09-09T13:02:49;98814.31;;;21.16;48.60
73910;BME280;62245;48.070;7.874;2022-09-09T13:05:18;98806.59;;;20.99;46.92
73910;BME280;62245;48.070;7.874;2022-09-09T13:07:43;98791.41;;;20.93;46.67
73910;BME280;62245;48.070;7.874;2022-09-09T13:10:13;98809.63;;;20.93;47.23
73910;BME280;62245;48.070;7.874;2022-09-09T13:12:40;98800.69;;;20.87;48.24
73910;BME280;62245;48.070;7.874;2022-09-09T13:15:16;98803.44;;;20.82;49.29
73910;BME280;62245;48.070;7.874;2022-09-09T13:17:58;98806.16;;;20.82;49.58
73910;BME280;62245;48.070;7.874;2022-09-09T13:20:26;98796.28;;;20.96;49.72
73910;BME280;62245;48.070;7.874;2022-09-09T13:22:53;98791.75;;;20.87;49.81
73910;BME280;62245;48.070;7.874;2022-09-09T13:25:25;98780.69;;;20.78;50.41
73910;BME280;62245;48.070;7.874;2022-09-09T13:27:57;98793.41;;;20.83;50.58
73910;BME280;62245;48.070;7.874;2022-09-09T13:30:31;98791.63;;;20.63;51.28
73910;BME280;62245;48.070;7.874;2022-09-09T13:38:15;98833.69;;;19.66;59.68
73910;BME280;62245;48.070;7.874;2022-09-09T13:40:53;98805.03;;;19.54;58.34
73910;BME280;62245;48.070;7.874;2022-09-09T13:43:22;98821.81;;;19.11;59.44
73910;BME280;62245;48.070;7.874;2022-09-09T13:45:58;98800.16;;;19.01;59.59
73910;BME280;62245;48.070;7.874;2022-09-09T13:48:24;98799.63;;;18.94;61.37
73910;BME280;62245;48.070;7.874;2022-09-09T13:51:02;98811.22;;;18.89;61.76
73910;BME280;62245;48.070;7.874;2022-09-09T13:53:29;98802.31;;;18.99;60.42
73910;BME280;62245;48.070;7.874;2022-09-09T13:55:55;98796.09;;;19.03;60.28
73910;BME280;62245;48.070;7.874;2022-09-09T13:58:22;98796.94;;;19.09;60.71
73910;BME280;62245;48.070;7.874;2022-09-09T14:00:49;98801.53;;;19.18;61.79
73910;BME280;62245;48.070;7.874;2022-09-09T14:03:15;98803.38;;;19.38;61.58
73910;BME280;62245;48.070;7.874;2022-09-09T14:05:40;98795.81;;;19.66;60.98
73910;BME280;62245;48.070;7.874;2022-09-09T14:08:14;98789.75;;;19.99;58.98
73910;BME280;62245;48.070;7.874;2022-09-09T14:10:40;98789.97;;;20.13;56.74
73910;BME280;62245;48.070;7.874;2022-09-09T14:13:05;98786.38;;;20.27;55.59
73910;BME280;62245;48.070;7.874;2022-09-09T14:15:31;98786.06;;;20.44;56.03
73910;BME280;62245;48.070;7.874;2022-09-09T14:17:56;98786.88;;;20.45;54.11
73910;BME280;62245;48.070;7.874;2022-09-09T14:20:21;98796.94;;;20.34;55.94
73910;BME280;62245;48.070;7.874;2022-09-09T14:22:46;98786.63;;;20.36;56.17
73910;BME280;62245;48.070;7.874;2022-09-09T14:25:12;98800.63;;;20.53;55.63
73910;BME280;62245;48.070;7.874;2022-09-09T14:27:39;98801.19;;;20.55;54.67
73910;BME280;62245;48.070;7.874;2022-09-09T14:30:05;98794.41;;;20.53;54.75
73910;BME280;62245;48.070;7.874;2022-09-09T14:32:30;98803.84;;;20.65;54.38
73910;BME280;62245;48.070;7.874;2022-09-09T14:34:55;98795.84;;;20.84;54.49
73910;BME280;62245;48.070;7.874;2022-09-09T14:37:21;98786.53;;;20.95;53.50
73910;BME280;62245;48.070;7.874;2022-09-09T14:39:46;98797.78;;;21.13;53.66
73910;BME280;62245;48.070;7.874;2022-09-09T14:42:13;98797.19;;;21.21;53.56
73910;BME280;62245;48.070;7.874;2022-09-09T14:44:38;98791.69;;;21.31;52.80
73910;BME280;62245;48.070;7.874;2022-09-09T14:47:07;98788.41;;;21.34;52.66
73910;BME280;62245;48.070;7.874;2022-09-09T14:49:36;98789.44;;;21.38;53.25
73910;BME280;62245;48.070;7.874;2022-09-09T14:52:03;98796.16;;;21.12;53.96
73910;BME280;62245;48.070;7.874;2022-09-09T14:54:28;98792.94;;;21.09;53.55
73910;BME280;62245;48.070;7.874;2022-09-09T14:56:54;98795.88;;;21.13;53.64
73910;BME280;62245;48.070;7.874;2022-09-09T14:59:19;98794.72;;;20.90;53.04
73910;BME280;62245;48.070;7.874;2022-09-09T15:01:44;98794.19;;;20.88;53.32
73910;BME280;62245;48.070;7.874;2022-09-09T15:04:11;98797.50;;;20.80;54.00
73910;BME280;62245;48.070;7.874;2022-09-09T15:06:37;98788.00;;;20.83;54.56
73910;BME280;62245;48.070;7.874;2022-09-09T15:09:04;98785.06;;;20.74;55.09
73910;BME280;62245;48.070;7.874;2022-09-09T15:11:32;98779.59;;;20.79;54.96
73910;BME280;62245;48.070;7.874;2022-09-09T15:13:59;98788.06;;;20.73;56.06
73910;BME280;62245;48.070;7.874;2022-09-09T15:16:26;98786.16;;;20.73;56.09
73910;BME280;62245;48.070;7.874;2022-09-09T15:18:54;98788.00;;;20.78;56.36
73910;BME280;62245;48.070;7.874;2022-09-09T15:21:22;98780.94;;;20.82;55.69
73910;BME280;62245;48.070;7.874;2022-09-09T15:23:48;98780.16;;;20.76;53.75
73910;BME280;62245;48.070;7.874;2022-09-09T15:26:14;98783.97;;;20.75;52.38
73910;BME280;62245;48.070;7.874;2022-09-09T15:28:41;98773.16;;;20.70;51.55
73910;BME280;62245;48.070;7.874;2022-09-09T15:31:11;98778.56;;;20.70;52.64
73910;BME280;62245;48.070;7.874;2022-09-09T15:33:37;98775.63;;;20.66;51.95
73910;BME280;62245;48.070;7.874;2022-09-09T15:36:13;98779.22;;;20.57;51.00
73910;BME280;62245;48.070;7.874;2022-09-09T15:38:38;98775.41;;;20.58;50.81
73910;BME280;62245;48.070;7.874;2022-09-09T15:41:04;98781.97;;;20.47;51.99
73910;BME280;62245;48.070;7.874;2022-09-09T15:43:29;98779.81;;;20.44;52.39
73910;BME280;62245;48.070;7.874;2022-09-09T15:45:59;98788.53;;;20.41;52.67
73910;BME280;62245;48.070;7.874;2022-09-09T15:48:32;98778.22;;;20.32;52.71
73910;BME280;62245;48.070;7.874;2022-09-09T15:51:04;98777.72;;;20.30;53.09
73910;BME280;62245;48.070;7.874;2022-09-09T15:53:30;98781.50;;;20.24;53.10
73910;BME280;62245;48.070;7.874;2022-09-09T15:55:57;98790.19;;;20.26;53.67
73910;BME280;62245;48.070;7.874;2022-09-09T15:58:23;98794.53;;;20.22;53.53
73910;BME280;62245;48.070;7.874;2022-09-09T16:00:48;98798.06;;;20.18;53.50
73910;BME280;62245;48.070;7.874;2022-09-09T16:03:13;98795.91;;;20.20;53.95
73910;BME280;62245;48.070;7.874;2022-09-09T16:05:39;98801.59;;;20.18;54.41
73910;BME280;62245;48.070;7.874;2022-09-09T16:08:05;98798.91;;;20.13;54.37
73910;BME280;62245;48.070;7.874;2022-09-09T16:10:30;98806.53;;;20.06;54.80
73910;BME280;62245;48.070;7.874;2022-09-09T16:12:56;98804.34;;;20.08;54.72
73910;BME280;62245;48.070;7.874;2022-09-09T16:15:21;98821.97;;;20.06;54.74
73910;BME280;62245;48.070;7.874;2022-09-09T16:17:48;98836.84;;;19.98;57.46
73910;BME280;62245;48.070;7.874;2022-09-09T16:20:14;98846.94;;;19.72;59.00
73910;BME280;62245;48.070;7.874;2022-09-09T16:22:39;98861.56;;;19.41;62.45
73910;BME280;62245;48.070;7.874;2022-09-09T16:25:05;98858.56;;;19.07;65.24
73910;BME280;62245;48.070;7.874;2022-09-09T16:27:31;98869.00;;;18.58;66.94
73910;BME280;62245;48.070;7.874;2022-09-09T16:29:56;98868.88;;;18.32;68.53
73910;BME280;62245;48.070;7.874;2022-09-09T16:32:22;98866.44;;;18.31;68.63
73910;BME280;62245;48.070;7.874;2022-09-09T16:34:47;98849.88;;;18.17;67.90
73910;BME280;62245;48.070;7.874;2022-09-09T16:37:12;98848.00;;;18.13;67.67
73910;BME280;62245;48.070;7.874;2022-09-09T16:39:38;98850.47;;;18.24;68.46
73910;BME280;62245;48.070;7.874;2022-09-09T16:42:03;98836.69;;;18.26;69.21
73910;BME280;62245;48.070;7.874;2022-09-09T16:44:29;98827.00;;;18.25;66.97
73910;BME280;62245;48.070;7.874;2022-09-09T16:46:55;98833.22;;;18.30;66.26
73910;BME280;62245;48.070;7.874;2022-09-09T16:49:21;98842.69;;;18.43;67.03
73910;BME280;62245;48.070;7.874;2022-09-09T16:51:49;98841.31;;;18.30;68.14
73910;BME280;62245;48.070;7.874;2022-09-09T16:54:16;98847.69;;;18.09;69.19
73910;BME280;62245;48.070;7.874;2022-09-09T16:56:43;98842.28;;;18.04;70.14
73910;BME280;62245;48.070;7.874;2022-09-09T16:59:12;98850.13;;;18.05;70.46
73910;BME280;62245;48.070;7.874;2022-09-09T17:01:39;98842.59;;;18.13;70.74
73910;BME280;62245;48.070;7.874;2022-09-09T17:04:08;98845.81;;;18.09;71.28
73910;BME280;62245;48.070;7.874;2022-09-09T17:06:35;98858.94;;;17.91;71.52
73910;BME280;62245;48.070;7.874;2022-09-09T17:09:05;98838.44;;;17.95;71.74
73910;BME280;62245;48.070;7.874;2022-09-09T17:11:30;98839.84;;;18.07;70.76
73910;BME280;62245;48.070;7.874;2022-09-09T17:13:57;98846.38;;;18.17;70.33
73910;BME280;62245;48.070;7.874;2022-09-09T17:16:25;98848.81;;;18.13;69.78